BAW158 KFLL-EGLL
Flight info
| Callsign | BAW158 |
|---|---|
| Flight time | N/A |
| Altitude | 37000 |
| Route | FEALX2 ETECK DCT UKOKA/M084F370 M202 JEBBY DCT MURLO/N0483F370 DCT SUPRY/M084F370 NATY ELSOX/N0482F370 DCT EVRIN DCT JETZI DCT AMFUL DCT ORZEB P2 SIRIC |
| Aircraft | A35K/H-SDE2E3GHIJ3J4J5LM1ORWXY/LB1D1 |
Departure
| Time | 2026-05-04 00:41 |
|---|---|
| Airport | Fort Lauderdale Hollywood International Airport (KFLL) |
Arrival
| Time | N/A |
|---|---|
| Airport | London Heathrow Airport (EGLL) |
| Time | Latitude | Longitude | Altitude | Speed | Heading |
|---|---|---|---|---|---|
| 2026-05-03 23:08 | 26.07428 | -80.14037 | 24 ft | 0 kts | 205° |
| 2026-05-03 23:36 | 26.07435 | -80.14034 | 26 ft | 4 kts | 209° |
| 2026-05-03 23:36 | 26.07456 | -80.14018 | 24 ft | 2 kts | 212° |
| 2026-05-03 23:37 | 26.07474 | -80.14001 | 26 ft | 4 kts | 242° |
| 2026-05-03 23:37 | 26.07478 | -80.13975 | 27 ft | 4 kts | 288° |
| 2026-05-03 23:37 | 26.07469 | -80.13950 | 26 ft | 1 kts | 289° |
| 2026-05-03 23:37 | 26.07468 | -80.13945 | 25 ft | 0 kts | 289° |
| 2026-05-03 23:45 | 26.07470 | -80.13953 | 26 ft | 2 kts | 289° |
| 2026-05-03 23:46 | 26.07477 | -80.13978 | 27 ft | 5 kts | 285° |
| 2026-05-03 23:46 | 26.07482 | -80.14026 | 26 ft | 9 kts | 272° |
| 2026-05-03 23:46 | 26.07484 | -80.14104 | 22 ft | 11 kts | 271° |
| 2026-05-03 23:46 | 26.07496 | -80.14194 | 25 ft | 12 kts | 298° |
| 2026-05-03 23:47 | 26.07548 | -80.14270 | 27 ft | 13 kts | 293° |
| 2026-05-03 23:47 | 26.07558 | -80.14375 | 23 ft | 14 kts | 271° |
| 2026-05-03 23:47 | 26.07559 | -80.14492 | 24 ft | 16 kts | 270° |
| 2026-05-03 23:47 | 26.07560 | -80.14622 | 26 ft | 18 kts | 270° |
| 2026-05-03 23:48 | 26.07561 | -80.14764 | 26 ft | 19 kts | 270° |
| 2026-05-03 23:48 | 26.07562 | -80.14917 | 26 ft | 21 kts | 270° |
| 2026-05-03 23:48 | 26.07562 | -80.15044 | 25 ft | 10 kts | 269° |
| 2026-05-03 23:48 | 26.07531 | -80.15112 | 24 ft | 11 kts | 220° |
| 2026-05-03 23:49 | 26.07491 | -80.15185 | 24 ft | 12 kts | 261° |
| 2026-05-03 23:49 | 26.07490 | -80.15233 | 21 ft | 0 kts | 270° |
| 2026-05-03 23:49 | 26.07490 | -80.15236 | 21 ft | 2 kts | 270° |
| 2026-05-03 23:50 | 26.07490 | -80.15262 | 21 ft | 5 kts | 270° |
| 2026-05-03 23:50 | 26.07490 | -80.15281 | 21 ft | 0 kts | 270° |
| 2026-05-03 23:50 | 26.07490 | -80.15301 | 21 ft | 4 kts | 270° |
| 2026-05-03 23:51 | 26.07490 | -80.15307 | 21 ft | 0 kts | 270° |
| 2026-05-03 23:51 | 26.07490 | -80.15309 | 21 ft | 1 kts | 270° |
| 2026-05-03 23:52 | 26.07490 | -80.15328 | 21 ft | 2 kts | 270° |
| 2026-05-03 23:52 | 26.07490 | -80.15330 | 21 ft | 1 kts | 270° |
| 2026-05-03 23:52 | 26.07490 | -80.15333 | 21 ft | 0 kts | 270° |
| 2026-05-03 23:53 | 26.07490 | -80.15344 | 21 ft | 3 kts | 270° |
| 2026-05-03 23:53 | 26.07490 | -80.15374 | 21 ft | 5 kts | 270° |
| 2026-05-03 23:53 | 26.07491 | -80.15424 | 21 ft | 6 kts | 270° |
| 2026-05-03 23:53 | 26.07491 | -80.15426 | 21 ft | 0 kts | 270° |
| 2026-05-03 23:54 | 26.07491 | -80.15435 | 21 ft | 3 kts | 270° |
| 2026-05-03 23:54 | 26.07491 | -80.15443 | 21 ft | 0 kts | 270° |
| 2026-05-03 23:57 | 26.07491 | -80.15446 | 21 ft | 2 kts | 270° |
| 2026-05-03 23:58 | 26.07491 | -80.15476 | 21 ft | 6 kts | 270° |
| 2026-05-03 23:58 | 26.07492 | -80.15529 | 21 ft | 0 kts | 270° |
| 2026-05-04 00:02 | 26.07492 | -80.15533 | 21 ft | 2 kts | 270° |
| 2026-05-04 00:02 | 26.07492 | -80.15555 | 21 ft | 4 kts | 270° |
| 2026-05-04 00:03 | 26.07492 | -80.15592 | 21 ft | 5 kts | 270° |
| 2026-05-04 00:03 | 26.07493 | -80.15624 | 21 ft | 3 kts | 270° |
| 2026-05-04 00:03 | 26.07493 | -80.15644 | 21 ft | 2 kts | 270° |
| 2026-05-04 00:03 | 26.07493 | -80.15657 | 21 ft | 2 kts | 270° |
| 2026-05-04 00:04 | 26.07493 | -80.15676 | 21 ft | 3 kts | 270° |
| 2026-05-04 00:04 | 26.07493 | -80.15681 | 21 ft | 0 kts | 270° |
| 2026-05-04 00:06 | 26.07493 | -80.15684 | 21 ft | 1 kts | 270° |
| 2026-05-04 00:06 | 26.07493 | -80.15702 | 21 ft | 3 kts | 270° |
| 2026-05-04 00:06 | 26.07493 | -80.15722 | 21 ft | 0 kts | 270° |
| 2026-05-04 00:08 | 26.07493 | -80.15724 | 21 ft | 1 kts | 270° |
| 2026-05-04 00:08 | 26.07493 | -80.15744 | 21 ft | 2 kts | 270° |
| 2026-05-04 00:08 | 26.07493 | -80.15750 | 21 ft | 0 kts | 270° |
| 2026-05-04 00:09 | 26.07493 | -80.15765 | 21 ft | 3 kts | 270° |
| 2026-05-04 00:09 | 26.07493 | -80.15802 | 21 ft | 6 kts | 270° |
| 2026-05-04 00:09 | 26.07493 | -80.15857 | 22 ft | 7 kts | 270° |
| 2026-05-04 00:09 | 26.07494 | -80.15884 | 22 ft | 0 kts | 270° |
| 2026-05-04 00:10 | 26.07494 | -80.15895 | 22 ft | 5 kts | 270° |
| 2026-05-04 00:10 | 26.07494 | -80.15908 | 22 ft | 0 kts | 270° |
| 2026-05-04 00:12 | 26.07494 | -80.15909 | 22 ft | 1 kts | 270° |
| 2026-05-04 00:13 | 26.07494 | -80.15933 | 22 ft | 4 kts | 270° |
| 2026-05-04 00:13 | 26.07494 | -80.15935 | 22 ft | 0 kts | 270° |
| 2026-05-04 00:15 | 26.07494 | -80.15939 | 22 ft | 2 kts | 270° |
| 2026-05-04 00:15 | 26.07494 | -80.15956 | 22 ft | 5 kts | 270° |
| 2026-05-04 00:15 | 26.07494 | -80.16002 | 22 ft | 7 kts | 270° |
| 2026-05-04 00:15 | 26.07494 | -80.16013 | 22 ft | 0 kts | 270° |
| 2026-05-04 00:16 | 26.07494 | -80.16014 | 22 ft | 0 kts | 270° |
| 2026-05-04 00:17 | 26.07494 | -80.16015 | 22 ft | 0 kts | 270° |
| 2026-05-04 00:17 | 26.07494 | -80.16019 | 22 ft | 2 kts | 270° |
| 2026-05-04 00:18 | 26.07494 | -80.16033 | 22 ft | 0 kts | 270° |
| 2026-05-04 00:20 | 26.07494 | -80.16035 | 22 ft | 1 kts | 270° |
| 2026-05-04 00:20 | 26.07494 | -80.16038 | 22 ft | 1 kts | 270° |
| 2026-05-04 00:20 | 26.07494 | -80.16057 | 22 ft | 4 kts | 270° |
| 2026-05-04 00:21 | 26.07494 | -80.16091 | 22 ft | 0 kts | 270° |
| 2026-05-04 00:22 | 26.07494 | -80.16092 | 22 ft | 1 kts | 270° |
| 2026-05-04 00:22 | 26.07494 | -80.16103 | 22 ft | 3 kts | 270° |
| 2026-05-04 00:22 | 26.07494 | -80.16133 | 22 ft | 5 kts | 270° |
| 2026-05-04 00:23 | 26.07494 | -80.16135 | 22 ft | 0 kts | 270° |
| 2026-05-04 00:23 | 26.07494 | -80.16146 | 22 ft | 3 kts | 270° |
| 2026-05-04 00:24 | 26.07494 | -80.16161 | 22 ft | 0 kts | 270° |
| 2026-05-04 00:24 | 26.07494 | -80.16168 | 22 ft | 2 kts | 270° |
| 2026-05-04 00:25 | 26.07494 | -80.16195 | 22 ft | 5 kts | 270° |
| 2026-05-04 00:25 | 26.07494 | -80.16216 | 22 ft | 0 kts | 271° |
| 2026-05-04 00:25 | 26.07494 | -80.16218 | 22 ft | 1 kts | 271° |
| 2026-05-04 00:26 | 26.07495 | -80.16237 | 22 ft | 4 kts | 271° |
| 2026-05-04 00:26 | 26.07495 | -80.16275 | 22 ft | 6 kts | 271° |
| 2026-05-04 00:26 | 26.07496 | -80.16325 | 22 ft | 0 kts | 271° |
| 2026-05-04 00:28 | 26.07496 | -80.16326 | 22 ft | 0 kts | 271° |
| 2026-05-04 00:28 | 26.07496 | -80.16339 | 22 ft | 3 kts | 271° |
| 2026-05-04 00:28 | 26.07496 | -80.16371 | 22 ft | 5 kts | 271° |
| 2026-05-04 00:28 | 26.07497 | -80.16417 | 22 ft | 7 kts | 271° |
| 2026-05-04 00:29 | 26.07498 | -80.16477 | 22 ft | 9 kts | 271° |
| 2026-05-04 00:29 | 26.07498 | -80.16490 | 22 ft | 0 kts | 271° |
| 2026-05-04 00:31 | 26.07498 | -80.16503 | 22 ft | 3 kts | 269° |
| 2026-05-04 00:31 | 26.07498 | -80.16536 | 22 ft | 5 kts | 269° |
| 2026-05-04 00:32 | 26.07498 | -80.16545 | 22 ft | 0 kts | 269° |
| 2026-05-04 00:33 | 26.07497 | -80.16559 | 22 ft | 3 kts | 269° |
| 2026-05-04 00:33 | 26.07504 | -80.16607 | 24 ft | 0 kts | 295° |
| 2026-05-04 00:34 | 26.07510 | -80.16617 | 25 ft | 3 kts | 302° |
| 2026-05-04 00:34 | 26.07530 | -80.16632 | 23 ft | 4 kts | 333° |
| 2026-05-04 00:34 | 26.07552 | -80.16639 | 25 ft | 0 kts | 352° |
| 2026-05-04 00:36 | 26.07553 | -80.16639 | 24 ft | 1 kts | 352° |
| 2026-05-04 00:36 | 26.07565 | -80.16640 | 23 ft | 3 kts | 355° |
| 2026-05-04 00:37 | 26.07578 | -80.16640 | 25 ft | 0 kts | 359° |
| 2026-05-04 00:37 | 26.07580 | -80.16640 | 25 ft | 0 kts | 359° |
| 2026-05-04 00:38 | 26.07584 | -80.16641 | 24 ft | 3 kts | 359° |
| 2026-05-04 00:38 | 26.07620 | -80.16641 | 25 ft | 7 kts | 359° |
| 2026-05-04 00:38 | 26.07675 | -80.16624 | 26 ft | 9 kts | 40° |
| 2026-05-04 00:38 | 26.07693 | -80.16559 | 29 ft | 10 kts | 89° |
| 2026-05-04 00:39 | 26.07693 | -80.16544 | 28 ft | 0 kts | 90° |
| 2026-05-04 00:40 | 26.07692 | -80.16367 | 26 ft | 56 kts | 90° |
| 2026-05-04 00:40 | 26.07690 | -80.15683 | 22 ft | 120 kts | 90° |
| 2026-05-04 00:40 | 26.07684 | -80.14552 | 59 ft | 167 kts | 90° |
| 2026-05-04 00:41 | 26.07677 | -80.13270 | 641 ft | 168 kts | 90° |
| 2026-05-04 00:41 | 26.07666 | -80.11954 | 1241 ft | 173 kts | 91° |
| 2026-05-04 00:41 | 26.07690 | -80.10534 | 1599 ft | 194 kts | 88° |
| 2026-05-04 00:41 | 26.07739 | -80.08946 | 1892 ft | 217 kts | 88° |
| 2026-05-04 00:42 | 26.07775 | -80.07206 | 2331 ft | 231 kts | 89° |
| 2026-05-04 00:42 | 26.07799 | -80.05385 | 2792 ft | 246 kts | 89° |
| 2026-05-04 00:42 | 26.07816 | -80.03431 | 3341 ft | 257 kts | 89° |
| 2026-05-04 00:42 | 26.07888 | -80.01426 | 4030 ft | 262 kts | 82° |
| 2026-05-04 00:43 | 26.08553 | -79.99541 | 4715 ft | 265 kts | 56° |
| 2026-05-04 00:43 | 26.09624 | -79.97867 | 5436 ft | 268 kts | 53° |
| 2026-05-04 00:43 | 26.10748 | -79.96196 | 6180 ft | 271 kts | 53° |
| 2026-05-04 00:43 | 26.11879 | -79.94500 | 6943 ft | 274 kts | 53° |
| 2026-05-04 00:44 | 26.13015 | -79.92782 | 7716 ft | 277 kts | 53° |
| 2026-05-04 00:44 | 26.14162 | -79.91036 | 8500 ft | 281 kts | 53° |
| 2026-05-04 00:44 | 26.15319 | -79.89273 | 9273 ft | 284 kts | 53° |
| 2026-05-04 00:44 | 26.16476 | -79.87514 | 10033 ft | 287 kts | 53° |
| 2026-05-04 00:45 | 26.17679 | -79.85680 | 10536 ft | 302 kts | 54° |
| 2026-05-04 00:45 | 26.18953 | -79.83726 | 10879 ft | 321 kts | 54° |
| 2026-05-04 00:45 | 26.20303 | -79.81653 | 11223 ft | 340 kts | 54° |
| 2026-05-04 00:45 | 26.21724 | -79.79472 | 11558 ft | 357 kts | 54° |
| 2026-05-04 00:46 | 26.23211 | -79.77192 | 11968 ft | 369 kts | 54° |
| 2026-05-04 00:46 | 26.24732 | -79.74856 | 12591 ft | 375 kts | 54° |
| 2026-05-04 00:46 | 26.26277 | -79.72484 | 13246 ft | 380 kts | 54° |
| 2026-05-04 00:46 | 26.27837 | -79.70087 | 13893 ft | 384 kts | 54° |
| 2026-05-04 00:47 | 26.29451 | -79.67749 | 14526 ft | 388 kts | 49° |
| 2026-05-04 00:47 | 26.31292 | -79.65529 | 15163 ft | 391 kts | 46° |
| 2026-05-04 00:47 | 26.33196 | -79.63345 | 15778 ft | 395 kts | 45° |
| 2026-05-04 00:47 | 26.35124 | -79.61141 | 16388 ft | 399 kts | 45° |
| 2026-05-04 00:48 | 26.37067 | -79.58913 | 16958 ft | 402 kts | 45° |
| 2026-05-04 00:48 | 26.39025 | -79.56665 | 17554 ft | 406 kts | 45° |
| 2026-05-04 00:48 | 26.40998 | -79.54395 | 18153 ft | 409 kts | 46° |
| 2026-05-04 00:48 | 26.42988 | -79.52104 | 18730 ft | 413 kts | 46° |
| 2026-05-04 00:49 | 26.44992 | -79.49795 | 19308 ft | 416 kts | 46° |
| 2026-05-04 00:49 | 26.46987 | -79.47494 | 19897 ft | 420 kts | 46° |
| 2026-05-04 00:49 | 26.49030 | -79.45138 | 20465 ft | 424 kts | 46° |
| 2026-05-04 00:49 | 26.51087 | -79.42763 | 21029 ft | 427 kts | 46° |
| 2026-05-04 00:50 | 26.53160 | -79.40371 | 21573 ft | 431 kts | 45° |
| 2026-05-04 00:50 | 26.55365 | -79.38085 | 22102 ft | 434 kts | 38° |
| 2026-05-04 00:50 | 26.57854 | -79.36156 | 22645 ft | 437 kts | 32° |
| 2026-05-04 00:50 | 26.60455 | -79.34374 | 23157 ft | 441 kts | 31° |
| 2026-05-04 00:51 | 26.63090 | -79.32596 | 23664 ft | 444 kts | 31° |
| 2026-05-04 00:51 | 26.65711 | -79.30824 | 24157 ft | 447 kts | 31° |
| 2026-05-04 00:51 | 26.68380 | -79.29014 | 24650 ft | 451 kts | 31° |
| 2026-05-04 00:51 | 26.71067 | -79.27187 | 25140 ft | 454 kts | 31° |
| 2026-05-04 00:52 | 26.73777 | -79.25343 | 25594 ft | 457 kts | 31° |
| 2026-05-04 00:52 | 26.76502 | -79.23487 | 26057 ft | 460 kts | 31° |
| 2026-05-04 00:52 | 26.79248 | -79.21614 | 26510 ft | 464 kts | 31° |
| 2026-05-04 00:52 | 26.82012 | -79.19728 | 26947 ft | 467 kts | 31° |
| 2026-05-04 00:53 | 26.84791 | -79.17831 | 27392 ft | 470 kts | 31° |
| 2026-05-04 00:53 | 26.87554 | -79.15943 | 27808 ft | 473 kts | 31° |
| 2026-05-04 00:53 | 26.90367 | -79.14019 | 28220 ft | 476 kts | 31° |
| 2026-05-04 00:53 | 26.93199 | -79.12082 | 28621 ft | 479 kts | 31° |
| 2026-05-04 00:54 | 26.96052 | -79.10130 | 29005 ft | 481 kts | 31° |
| 2026-05-04 00:54 | 26.98917 | -79.08167 | 29371 ft | 484 kts | 31° |
| 2026-05-04 00:54 | 27.01799 | -79.06192 | 29721 ft | 487 kts | 31° |
| 2026-05-04 00:54 | 27.04692 | -79.04208 | 30064 ft | 489 kts | 31° |
| 2026-05-04 00:55 | 27.07607 | -79.02208 | 30397 ft | 492 kts | 31° |
| 2026-05-04 00:55 | 27.10491 | -79.00228 | 30694 ft | 494 kts | 31° |
| 2026-05-04 00:55 | 27.13423 | -78.98213 | 31102 ft | 494 kts | 31° |
| 2026-05-04 00:55 | 27.16347 | -78.96203 | 31554 ft | 492 kts | 31° |
| 2026-05-04 00:56 | 27.19262 | -78.94198 | 31967 ft | 491 kts | 31° |
| 2026-05-04 00:56 | 27.22172 | -78.92195 | 32350 ft | 490 kts | 31° |
| 2026-05-04 00:56 | 27.25072 | -78.90198 | 32708 ft | 490 kts | 31° |
| 2026-05-04 00:56 | 27.27971 | -78.88200 | 33079 ft | 489 kts | 31° |
| 2026-05-04 00:57 | 27.30871 | -78.86200 | 33429 ft | 488 kts | 31° |
| 2026-05-04 00:57 | 27.33728 | -78.84229 | 33755 ft | 487 kts | 31° |
| 2026-05-04 00:57 | 27.36627 | -78.82255 | 34071 ft | 487 kts | 29° |
| 2026-05-04 00:57 | 27.39664 | -78.80587 | 34361 ft | 486 kts | 21° |
| 2026-05-04 00:58 | 27.42886 | -78.79460 | 34640 ft | 485 kts | 12° |
| 2026-05-04 00:58 | 27.46213 | -78.78830 | 34919 ft | 484 kts | 7° |
| 2026-05-04 00:58 | 27.49547 | -78.78339 | 35186 ft | 484 kts | 7° |
| 2026-05-04 00:58 | 27.52886 | -78.77861 | 35451 ft | 483 kts | 7° |
| 2026-05-04 00:59 | 27.56222 | -78.77380 | 35703 ft | 483 kts | 7° |
| 2026-05-04 00:59 | 27.59555 | -78.76897 | 35942 ft | 482 kts | 7° |
| 2026-05-04 00:59 | 27.62834 | -78.76419 | 36164 ft | 482 kts | 7° |
| 2026-05-04 00:59 | 27.66159 | -78.75934 | 36377 ft | 482 kts | 7° |
| 2026-05-04 01:00 | 27.69482 | -78.75447 | 36576 ft | 482 kts | 7° |
| 2026-05-04 01:00 | 27.72809 | -78.74959 | 36762 ft | 482 kts | 7° |
| 2026-05-04 01:00 | 27.76138 | -78.74471 | 36937 ft | 482 kts | 7° |
| 2026-05-04 01:01 | 27.82832 | -78.73488 | 36999 ft | 489 kts | 7° |
| 2026-05-04 01:01 | 27.89532 | -78.72502 | 37000 ft | 488 kts | 7° |
| 2026-05-04 01:02 | 27.96271 | -78.71509 | 37000 ft | 488 kts | 7° |
| 2026-05-04 01:02 | 28.03008 | -78.70516 | 37000 ft | 488 kts | 7° |
| 2026-05-04 01:03 | 28.09748 | -78.69520 | 37000 ft | 488 kts | 7° |
| 2026-05-04 01:03 | 28.16485 | -78.68524 | 37000 ft | 488 kts | 7° |
| 2026-05-04 01:04 | 28.23174 | -78.67534 | 37000 ft | 488 kts | 7° |
| 2026-05-04 01:04 | 28.29916 | -78.66534 | 37000 ft | 488 kts | 7° |
| 2026-05-04 01:05 | 28.36649 | -78.65535 | 37000 ft | 488 kts | 7° |
| 2026-05-04 01:05 | 28.43387 | -78.64533 | 37000 ft | 488 kts | 7° |
| 2026-05-04 01:06 | 28.50077 | -78.63538 | 37000 ft | 488 kts | 7° |
| 2026-05-04 01:06 | 28.56817 | -78.62533 | 37000 ft | 488 kts | 7° |
| 2026-05-04 01:07 | 28.63552 | -78.61528 | 37000 ft | 488 kts | 7° |
| 2026-05-04 01:07 | 28.70291 | -78.60522 | 37000 ft | 488 kts | 7° |
| 2026-05-04 01:08 | 28.76980 | -78.59521 | 37000 ft | 488 kts | 7° |
| 2026-05-04 01:08 | 28.83715 | -78.58512 | 37000 ft | 488 kts | 7° |
| 2026-05-04 01:09 | 28.90451 | -78.57502 | 37000 ft | 488 kts | 7° |
| 2026-05-04 01:09 | 28.97188 | -78.56490 | 37000 ft | 488 kts | 7° |
| 2026-05-04 01:10 | 29.03882 | -78.55484 | 37000 ft | 488 kts | 7° |
| 2026-05-04 01:10 | 29.10616 | -78.54470 | 37000 ft | 488 kts | 7° |
| 2026-05-04 01:11 | 29.17354 | -78.53454 | 37000 ft | 488 kts | 7° |
| 2026-05-04 01:11 | 29.24089 | -78.52437 | 37000 ft | 488 kts | 7° |
| 2026-05-04 01:12 | 29.30782 | -78.51425 | 37000 ft | 488 kts | 7° |
| 2026-05-04 01:12 | 29.37514 | -78.50406 | 37000 ft | 488 kts | 7° |
| 2026-05-04 01:13 | 29.44250 | -78.49386 | 37000 ft | 488 kts | 7° |
| 2026-05-04 01:13 | 29.50986 | -78.48364 | 37000 ft | 488 kts | 7° |
| 2026-05-04 01:14 | 29.57706 | -78.47221 | 37000 ft | 488 kts | 13° |
| 2026-05-04 01:14 | 29.63994 | -78.44481 | 37000 ft | 488 kts | 30° |
| 2026-05-04 01:15 | 29.69259 | -78.39597 | 37000 ft | 488 kts | 46° |
| 2026-05-04 01:15 | 29.73801 | -78.33779 | 37000 ft | 489 kts | 49° |
| 2026-05-04 01:16 | 29.78198 | -78.27796 | 37000 ft | 489 kts | 50° |
| 2026-05-04 01:16 | 29.82588 | -78.21870 | 37000 ft | 489 kts | 49° |
| 2026-05-04 01:17 | 29.87038 | -78.15936 | 37000 ft | 489 kts | 49° |
| 2026-05-04 01:17 | 29.91498 | -78.10009 | 37000 ft | 489 kts | 49° |
| 2026-05-04 01:18 | 29.95956 | -78.04076 | 37000 ft | 489 kts | 49° |
| 2026-05-04 01:18 | 30.00413 | -77.98134 | 37000 ft | 489 kts | 49° |
| 2026-05-04 01:19 | 30.04833 | -77.92228 | 37000 ft | 489 kts | 49° |
| 2026-05-04 01:19 | 30.09280 | -77.86278 | 37000 ft | 489 kts | 49° |
| 2026-05-04 01:20 | 30.13725 | -77.80322 | 37000 ft | 489 kts | 49° |
| 2026-05-04 01:20 | 30.18168 | -77.74359 | 37000 ft | 489 kts | 49° |
| 2026-05-04 01:21 | 30.22578 | -77.68433 | 37000 ft | 489 kts | 49° |
| 2026-05-04 01:21 | 30.27016 | -77.62459 | 37000 ft | 489 kts | 49° |
| 2026-05-04 01:22 | 30.31448 | -77.56485 | 37000 ft | 489 kts | 49° |
| 2026-05-04 01:22 | 30.35884 | -77.50496 | 37000 ft | 489 kts | 49° |
| 2026-05-04 01:23 | 30.40280 | -77.44551 | 37000 ft | 489 kts | 49° |
| 2026-05-04 01:23 | 30.44707 | -77.38556 | 37000 ft | 489 kts | 49° |
| 2026-05-04 01:24 | 30.49131 | -77.32556 | 37000 ft | 489 kts | 49° |
| 2026-05-04 01:24 | 30.53550 | -77.26554 | 37000 ft | 489 kts | 49° |
| 2026-05-04 01:25 | 30.57941 | -77.20579 | 37000 ft | 489 kts | 49° |
| 2026-05-04 01:25 | 30.62354 | -77.14567 | 37000 ft | 489 kts | 49° |